Latest Weather Observations for Clare

IDS60801

Issued at 12:31 pm CDT Sunday 21 December 2014 (issued every 30 minutes, with the page automatically refreshed every 10 minutes)

About weather observations | Map of weather stations | Latest weather observations for SA | Other Formats
Station Details ID: 021131 Name: CLARE HIGH SCHOOL Lat: -33.82 Lon: 138.59 Height: 395.0 m
Data from the previous 72 hours. | See also: Recent months at Clare
Date/Time
CDT
Temp
°C
App
Temp
°C
Dew
Point
Rel
Hum
%
Delta-T
°C
Wind Press
QNH
hPa
Press
MSL
hPa
Rain
since 9 am
mm
Dir
 
Spd
km/h
Gust
km/h
Spd
kts
Gust
kts
21/12:30pm 32.9 28.6 -1.4 11 16.6 NW 11 20 6 11 1013.1 - 0.0
21/12:00pm 31.9 27.1 -2.2 11 16.2 WNW 13 22 7 12 1013.2 1011.8 0.0
21/11:30am 31.4 26.1 -0.3 13 15.5 NNW 17 30 9 16 1013.4 - 0.0
21/11:00am 31.6 26.0 0.9 14 15.3 N 20 33 11 18 1013.6 - 0.0
21/10:30am 31.3 25.8 0.6 14 15.2 N 19 30 10 16 1013.8 - 0.0
21/10:00am 30.9 25.4 0.3 14 15.1 N 19 28 10 15 1013.9 - 0.0
21/09:30am 29.5 24.2 1.9 17 13.8 N 19 32 10 17 1014.1 - 0.0
21/09:00am 27.7 22.5 2.7 20 12.6 N 19 22 10 12 1014.0 1012.6 0.0
21/08:30am 25.9 22.3 3.2 23 11.4 NNE 11 17 6 9 1014.1 - 0.0
21/08:00am 24.4 20.9 3.7 26 10.4 N 11 19 6 10 1013.9 - 0.0
21/07:30am 22.5 20.2 5.0 32 8.9 NNE 6 11 3 6 1013.6 - 0.0
21/07:00am 18.0 16.2 7.1 49 5.6 E 6 9 3 5 1013.5 - 0.0
21/06:30am 17.7 15.7 6.3 47 5.7 E 6 9 3 5 1013.2 - 0.0
21/06:00am 17.4 15.3 6.6 49 5.5 E 7 9 4 5 1013.2 1011.8 0.0
21/05:30am 18.1 15.9 6.3 46 5.9 ESE 7 9 4 5 1013.0 - 0.0
21/05:00am 18.9 16.9 6.4 44 6.3 ESE 6 7 3 4 1013.0 - 0.0
21/04:30am 19.3 17.3 6.4 43 6.6 E 6 11 3 6 1012.9 - 0.0
21/04:00am 19.0 17.1 6.5 44 6.4 ESE 6 11 3 6 1012.9 - 0.0
21/03:30am 18.8 17.0 7.3 47 5.9 ESE 6 9 3 5 1013.1 - 0.0
21/03:00am 19.7 17.8 7.4 45 6.4 E 7 13 4 7 1013.3 1011.9 0.0
21/02:30am 19.8 17.8 7.2 44 6.5 E 7 17 4 9 1013.6 - 0.0
21/02:00am 19.7 17.9 7.1 44 6.5 ESE 6 11 3 6 1013.8 - 0.0
21/01:30am 20.0 17.8 6.4 41 7.0 ESE 7 15 4 8 1013.7 - 0.0
21/01:00am 20.8 18.1 5.6 37 7.7 E 9 15 5 8 1013.9 - 0.0
21/12:30am 21.0 18.7 5.8 37 7.7 E 7 15 4 8 1013.9 - 0.0
21/12:00am 20.6 18.9 5.8 38 7.5 ESE 4 9 2 5 1014.2 1012.9 0.0
 
Date/Time
CDT
Temp
°C
App
Temp
°C
Dew
Point
Rel
Hum
%
Delta-T
°C
Wind Press
QNH
hPa
Press
MSL
hPa
Rain
since 9 am
mm
Dir
 
Spd
km/h
Gust
km/h
Spd
kts
Gust
kts
20/11:30pm 21.2 19.0 5.5 36 8.0 ESE 6 9 3 5 1014.4 - 0.0
20/11:00pm 21.6 19.5 5.9 36 8.0 SE 6 13 3 7 1014.5 - 0.0
20/10:30pm 21.8 19.7 6.5 37 7.9 SE 7 13 4 7 1014.7 - 0.0
20/10:00pm 22.0 19.6 7.0 38 7.9 ESE 9 15 5 8 1014.8 - 0.0
20/09:30pm 22.0 20.5 6.7 37 8.0 SE 4 9 2 5 1014.9 - 0.0
20/09:00pm 23.0 20.1 6.7 35 8.5 S 11 19 6 10 1015.1 1013.8 0.0
20/08:30pm 24.1 20.8 6.4 32 9.3 SSW 13 20 7 11 1015.0 - 0.0
20/08:00pm 25.8 22.1 6.4 29 10.3 SSW 15 22 8 12 1014.6 - 0.0
20/07:30pm 28.0 24.5 5.6 24 11.9 SW 13 22 7 12 1014.1 - 0.0
20/07:00pm 29.7 26.0 2.1 17 13.9 W 11 15 6 8 1013.9 - 0.0
20/06:30pm 29.8 26.7 1.3 16 14.2 S 7 17 4 9 1013.9 - 0.0
20/06:00pm 29.8 25.7 2.1 17 14.0 W 13 17 7 9 1013.9 1012.5 0.0
20/05:30pm 29.4 26.4 1.8 17 13.8 NW 7 19 4 10 1014.1 - 0.0
20/05:00pm 30.9 28.1 3.0 17 14.4 WSW 7 20 4 11 1014.2 - 0.0
20/04:30pm 30.2 26.5 2.5 17 14.1 SW 11 20 6 11 1014.5 - 0.0
20/04:00pm 29.0 24.8 1.5 17 13.6 NNW 13 22 7 12 1014.9 - 0.0
20/03:30pm 29.4 26.4 1.8 17 13.8 W 7 24 4 13 1015.5 - 0.0
20/03:00pm 29.4 25.4 2.6 18 13.6 WSW 13 20 7 11 1015.9 1014.5 0.0
20/02:30pm 28.9 25.7 3.0 19 13.2 SW 9 19 5 10 1016.2 - 0.0
20/02:00pm 28.0 24.8 3.0 20 12.6 NW 9 17 5 9 1016.6 - 0.0
20/01:30pm 27.2 23.5 2.3 20 12.4 W 11 24 6 13 1017.0 - 0.0
20/01:00pm 27.9 24.4 3.6 21 12.4 WSW 11 20 6 11 1017.3 - 0.0
20/12:30pm 27.1 23.6 3.6 22 11.9 WSW 11 20 6 11 1017.6 - 0.0
20/12:00pm 25.9 22.5 3.8 24 11.2 WNW 11 19 6 10 1018.2 1016.8 0.0
20/11:30am 24.8 22.1 3.5 25 10.6 NW 7 13 4 7 1018.5 - 0.0
20/11:00am 24.7 21.5 5.0 28 10.1 NNW 11 22 6 12 1018.7 - 0.0
20/10:30am 23.2 19.9 4.7 30 9.4 NNE 11 19 6 10 1019.0 - 0.0
20/10:00am 21.2 18.5 5.5 36 8.0 NNE 9 17 5 9 1019.4 - 0.0
20/09:30am 19.9 16.9 5.9 40 7.1 ENE 11 17 6 9 1019.6 - 0.0
20/09:00am 18.0 15.1 6.5 47 5.8 NE 11 20 6 11 1019.8 1018.5 0.0
20/08:30am 16.6 14.3 7.3 54 4.7 ENE 9 15 5 8 1019.9 - 0.0
20/08:00am 14.9 12.2 7.5 61 3.7 ENE 11 17 6 9 1019.9 - 0.0
20/07:30am 13.7 11.5 7.7 67 3.0 E 9 13 5 7 1019.5 - 0.0
20/07:00am 12.6 10.4 7.9 73 2.4 E 9 17 5 9 1019.3 - 0.0
20/06:30am 11.3 9.5 7.8 79 1.7 E 7 13 4 7 1019.3 - 0.0
20/06:00am 10.7 9.7 7.4 80 1.6 E 2 6 1 3 1019.1 1017.8 0.0
20/05:30am 11.2 9.5 7.5 78 1.8 E 6 9 3 5 1018.8 - 0.0
20/05:00am 11.4 9.5 7.5 77 1.9 E 7 11 4 6 1018.7 - 0.0
20/04:30am 11.6 9.7 7.7 77 1.9 E 7 11 4 6 1018.5 - 0.0
20/04:00am 11.8 10.0 7.9 77 1.9 E 7 13 4 7 1018.4 - 0.0
20/03:30am 11.8 9.6 7.9 77 1.9 E 9 13 5 7 1018.5 - 0.0
20/03:00am 12.1 9.6 8.0 76 2.0 E 11 17 6 9 1018.6 1017.3 0.0
20/02:30am 12.2 10.3 7.7 74 2.2 E 7 11 4 6 1018.9 - 0.0
20/02:00am 12.5 10.3 7.8 73 2.4 ESE 9 17 5 9 1019.1 - 0.0
20/01:30am 12.8 10.6 7.7 71 2.6 ESE 9 17 5 9 1019.4 - 0.0
20/01:00am 13.2 10.6 7.6 69 2.8 E 11 17 6 9 1019.8 - 0.0
20/12:30am 13.7 11.7 8.5 71 2.7 E 9 13 5 7 1019.9 - 0.0
20/12:00am 13.5 12.9 8.8 73 2.4 ESE 2 7 1 4 1020.0 1018.7 0.0
 
Date/Time
CDT
Temp
°C
App
Temp
°C
Dew
Point
Rel
Hum
%
Delta-T
°C
Wind Press
QNH
hPa
Press
MSL
hPa
Rain
since 9 am
mm
Dir
 
Spd
km/h
Gust
km/h
Spd
kts
Gust
kts
19/11:30pm 14.3 12.9 8.9 70 2.8 ESE 6 9 3 5 1020.2 - 0.0
19/11:00pm 14.8 13.0 8.1 64 3.4 SE 7 13 4 7 1020.4 - 0.0
19/10:30pm 15.2 12.7 8.0 62 3.7 SE 11 20 6 11 1020.6 - 0.0
19/10:00pm 15.7 13.0 7.2 57 4.3 SE 11 17 6 9 1020.4 - 0.0
19/09:30pm 16.2 13.3 6.3 52 4.9 SSE 11 17 6 9 1020.3 - 0.0
19/09:00pm 17.0 14.0 5.9 48 5.5 S 11 22 6 12 1020.2 1018.9 0.0
19/08:30pm 18.0 14.3 2.3 35 7.3 S 11 17 6 9 1020.1 - 0.0
19/08:00pm 19.1 15.0 2.0 32 8.0 SSW 13 19 7 10 1020.0 - 0.0
19/07:30pm 20.0 15.8 1.9 30 8.5 SSW 13 22 7 12 1019.8 - 0.0
19/07:00pm 20.5 15.8 3.3 32 8.3 SSW 17 24 9 13 1019.6 - 0.0
19/06:30pm 21.4 17.2 4.0 32 8.6 S 15 28 8 15 1019.4 - 0.0
19/06:00pm 21.9 18.1 4.0 31 8.8 S 13 24 7 13 1019.0 1017.7 0.0
19/05:30pm 21.7 16.6 3.9 31 8.8 S 20 28 11 15 1019.1 - 0.0
19/05:00pm 22.2 16.7 1.8 26 9.7 SSW 20 28 11 15 1019.2 - 0.0
19/04:30pm 22.5 17.2 3.1 28 9.5 SSW 20 32 11 17 1019.3 - 0.0
19/04:00pm 23.0 17.7 3.0 27 9.8 S 20 32 11 17 1019.4 - 0.0
19/03:30pm 23.1 18.2 4.1 29 9.5 SW 19 30 10 16 1019.5 - 0.0
19/03:00pm 23.1 19.2 5.5 32 9.0 SW 15 30 8 16 1019.7 1018.4 0.0
19/02:30pm 22.8 18.9 5.3 32 8.9 S 15 30 8 16 1019.7 - 0.0
19/02:00pm 22.1 17.8 3.3 29 9.2 SSW 15 26 8 14 1019.9 - 0.0
19/01:30pm 21.5 17.7 4.1 32 8.6 S 13 24 7 13 1020.2 - 0.0
19/01:00pm 21.0 17.3 4.6 34 8.2 SSW 13 20 7 11 1020.4 - 0.0
19/12:30pm 21.0 17.1 5.4 36 7.9 SSW 15 28 8 15 1020.6 - 0.0
19/12:00pm 20.4 16.5 5.2 37 7.6 S 15 24 8 13 1020.7 1019.3 0.0
19/11:30am 19.1 16.3 5.2 40 6.9 WSW 9 17 5 9 1020.7 - 0.0
19/11:00am 17.9 14.6 4.8 42 6.4 S 11 20 6 11 1020.7 - 0.0
19/10:30am 18.0 15.9 5.9 45 6.0 SSW 6 13 3 7 1020.8 - 0.0
19/10:00am 16.2 13.4 5.2 48 5.4 SE 9 17 5 9 1020.8 - 0.0
19/09:30am 15.8 13.1 5.4 50 5.1 SE 9 20 5 11 1020.9 - 0.0
19/09:00am 14.7 12.4 5.8 55 4.3 E 7 11 4 6 1020.9 1019.6 0.0
19/08:30am 14.3 11.6 5.4 55 4.3 E 9 15 5 8 1020.4 - 0.0
19/08:00am 13.5 11.3 6.1 61 3.6 E 7 11 4 6 1020.0 - 0.0
19/07:30am 12.2 10.9 5.8 65 3.1 SE 2 7 1 4 1019.6 - 0.0
19/07:00am 9.4 8.5 5.9 79 1.6 CALM 0 0 0 0 1019.3 - 0.0
19/06:30am 7.2 6.1 5.3 88 0.9 CALM 0 0 0 0 1018.9 - 0.0
19/06:00am 7.4 6.3 4.9 84 1.1 CALM 0 2 0 1 1018.4 1017.0 0.0
19/05:30am 8.4 6.3 5.7 83 1.3 SE 6 6 3 3 1018.3 - 0.0
19/05:00am 8.4 7.4 5.5 82 1.3 CALM 0 0 0 0 1018.3 - 0.0
19/04:30am 8.7 7.6 5.3 79 1.6 CALM 0 0 0 0 1018.1 - 0.0
19/04:00am 9.9 7.8 5.7 75 2.0 ESE 6 7 3 4 1017.8 - 0.0
19/03:30am 10.4 8.2 6.0 74 2.1 SE 7 11 4 6 1017.7 - 0.0
19/03:00am 10.6 8.5 6.0 73 2.2 ESE 6 7 3 4 1018.0 1016.6 0.0
19/02:30am 11.2 9.5 6.1 71 2.4 SSE 4 7 2 4 1018.0 - 0.0
19/02:00am 11.8 9.7 6.7 71 2.5 S 7 11 4 6 1018.0 - 0.0
19/01:30am 12.6 10.2 6.9 68 2.8 S 9 15 5 8 1018.0 - 0.0
19/01:00am 12.9 10.9 7.1 68 2.9 S 7 13 4 7 1018.1 - 0.0
19/12:30am 12.8 10.6 7.7 71 2.6 S 9 13 5 7 1018.1 - 0.0
19/12:00am 12.9 10.3 7.8 71 2.6 S 11 15 6 8 1018.0 1016.6 0.0
 
Date/Time
CDT
Temp
°C
App
Temp
°C
Dew
Point
Rel
Hum
%
Delta-T
°C
Wind Press
QNH
hPa
Press
MSL
hPa
Rain
since 9 am
mm
Dir
 
Spd
km/h
Gust
km/h
Spd
kts
Gust
kts
18/11:30pm 13.0 10.9 8.1 72 2.5 S 9 17 5 9 1017.8 - 0.0
18/11:00pm 13.3 10.9 8.6 73 2.4 S 11 17 6 9 1017.6 - 0.0
18/10:30pm 13.5 11.7 8.1 70 2.7 S 7 11 4 6 1017.4 - 0.0
18/10:00pm 14.1 11.5 7.6 65 3.3 S 11 17 6 9 1017.3 - 0.0
18/09:30pm 14.8 11.9 6.6 58 4.1 S 11 22 6 12 1016.9 - 0.0
18/09:00pm 15.6 12.2 5.8 52 4.8 S 13 26 7 14 1016.6 1015.3 0.0
18/08:30pm 16.2 12.8 6.1 51 5.0 S 13 24 7 13 1016.3 - 0.0
18/08:00pm 17.4 13.9 7.2 51 5.2 SSW 15 32 8 17 1016.1 - 0.0
18/07:30pm 18.4 14.6 7.5 49 5.6 SSW 17 32 9 17 1015.6 - 0.0
18/07:00pm 19.6 16.3 8.0 47 6.1 SSW 15 28 8 15 1014.9 - 0.0
18/06:30pm 20.4 15.8 5.6 38 7.5 SW 19 32 10 17 1014.5 - 0.0
18/06:00pm 20.6 15.6 4.6 35 7.9 SW 20 33 11 18 1014.2 1012.9 0.0
18/05:30pm 21.0 14.7 5.8 37 7.7 SSW 28 46 15 25 1013.7 - 0.0
18/05:00pm 21.1 16.4 5.9 37 7.8 SW 20 37 11 20 1013.7 - 0.0
18/04:30pm 22.2 16.6 5.6 34 8.5 WSW 24 43 13 23 1013.6 - 0.0
18/04:00pm 21.8 15.8 5.3 34 8.4 SW 26 43 14 23 1013.4 - 0.0
18/03:30pm 22.4 17.3 5.8 34 8.5 WSW 22 39 12 21 1013.5 - 0.0
18/03:10pm 21.3 14.9 5.2 35 8.1 WSW 28 46 15 25 1013.3 - 0.0
18/03:00pm 22.8 18.1 6.1 34 8.6 SW 20 41 11 22 1013.2 1011.8 0.0
18/02:30pm 22.5 17.1 6.3 35 8.4 WSW 24 43 13 23 1013.2 - 0.0
18/02:00pm 21.7 16.3 6.4 37 7.9 WSW 24 41 13 22 1013.0 - 0.0
18/01:30pm 21.8 16.4 6.5 37 7.9 WSW 24 39 13 21 1013.2 - 0.0
18/01:00pm 21.1 16.2 7.0 40 7.3 WSW 22 37 12 20 1013.3 - 0.0

Other Formats:

Comma delimited format used in spreadsheet applications
http://www.bom.gov.au/fwo/IDS60801/IDS60801.95667.axf

JavaScript Object Notation format (JSON) in row-major order
http://www.bom.gov.au/fwo/IDS60801/IDS60801.95667.json